createdAt,value
2019-01-19T00:00:40.511Z,14.47
2019-01-19T00:03:49.981Z,17.27
2019-01-19T00:07:00.836Z,19.50
2019-01-19T00:10:29.378Z,18.53
2019-01-19T00:13:38.860Z,18.73
2019-01-19T00:16:49.768Z,19.73
2019-01-19T00:20:00.649Z,16.63
2019-01-19T00:23:11.460Z,19.03
2019-01-19T00:26:20.936Z,19.60
2019-01-19T00:29:31.772Z,21.53
2019-01-19T00:32:42.576Z,22.83
2019-01-19T00:35:52.091Z,21.00
2019-01-19T00:39:02.952Z,20.80
2019-01-19T00:42:12.460Z,18.67
2019-01-19T00:45:23.283Z,18.13
2019-01-19T00:48:32.777Z,21.87
2019-01-19T00:51:43.637Z,22.77
2019-01-19T00:54:54.532Z,22.70
2019-01-19T00:58:05.368Z,25.27
2019-01-19T01:01:16.183Z,25.17
2019-01-19T01:04:25.774Z,23.57
2019-01-19T01:07:35.301Z,25.63
2019-01-19T01:10:46.166Z,23.67
2019-01-19T01:13:55.664Z,26.40
2019-01-19T01:17:06.526Z,27.93
2019-01-19T01:20:17.350Z,22.77
2019-01-19T01:23:26.858Z,25.60
2019-01-19T01:26:37.734Z,19.50
2019-01-19T01:29:47.239Z,20.10
2019-01-19T01:32:58.135Z,18.00
2019-01-19T01:36:07.702Z,21.97
2019-01-19T01:39:17.232Z,20.47
2019-01-19T01:42:26.707Z,19.90
2019-01-19T01:45:36.221Z,17.30
2019-01-19T01:48:47.139Z,25.70
2019-01-19T01:52:15.792Z,20.73
2019-01-19T01:55:26.598Z,19.03
2019-01-19T01:58:37.374Z,21.13
2019-01-19T02:02:06.294Z,19.70
2019-01-19T02:05:15.806Z,19.50
2019-01-19T02:08:26.683Z,21.83
2019-01-19T02:11:37.527Z,16.60
2019-01-19T02:14:47.028Z,16.57
2019-01-19T02:17:56.542Z,14.50
2019-01-19T02:21:07.432Z,15.73
2019-01-19T02:24:18.275Z,11.67
2019-01-19T02:27:27.787Z,15.00
2019-01-19T02:30:38.589Z,13.07
2019-01-19T02:33:48.062Z,10.73
2019-01-19T02:37:17.996Z,11.27
2019-01-19T02:40:28.849Z,12.33
2019-01-19T02:43:38.391Z,11.23
2019-01-19T02:46:47.900Z,11.53
2019-01-19T02:49:57.680Z,11.57
2019-01-19T02:53:08.569Z,13.47
2019-01-19T02:56:18.047Z,18.20
2019-01-19T02:59:47.935Z,18.20
2019-01-19T03:02:58.815Z,22.10
2019-01-19T03:06:09.691Z,24.83
2019-01-19T03:09:39.687Z,19.67
2019-01-19T03:12:49.228Z,17.57
2019-01-19T03:16:00.119Z,21.27
2019-01-19T03:19:10.996Z,17.43
2019-01-19T03:22:20.514Z,18.57
2019-01-19T03:25:29.997Z,18.17
2019-01-19T03:28:40.839Z,17.77
2019-01-19T03:31:50.307Z,15.73
2019-01-19T03:34:59.807Z,15.77
2019-01-19T03:38:09.335Z,16.97
2019-01-19T03:41:20.138Z,17.57
2019-01-19T03:44:30.976Z,18.43
2019-01-19T03:47:41.872Z,17.17
2019-01-19T03:50:52.782Z,15.60
2019-01-19T03:54:02.328Z,16.17
2019-01-19T03:57:13.169Z,15.50
2019-01-19T04:00:24.000Z,12.77
2019-01-19T04:03:34.838Z,14.63
2019-01-19T04:06:44.314Z,16.77
2019-01-19T04:10:14.268Z,21.10
2019-01-19T04:13:23.800Z,18.80
2019-01-19T04:16:34.692Z,18.30
2019-01-19T04:20:04.650Z,15.50
2019-01-19T04:26:25.999Z,18.33
2019-01-19T04:32:07.730Z,16.80
2019-01-19T04:34:57.902Z,16.10
2019-01-19T04:37:48.125Z,18.23
2019-01-19T04:40:19.034Z,17.00
2019-01-19T04:46:06.288Z,16.43
2019-01-19T04:51:47.883Z,16.37
2019-01-19T04:54:18.923Z,13.27
2019-01-19T04:56:49.894Z,16.10
2019-01-19T04:59:20.789Z,19.10
2019-01-19T05:01:51.773Z,14.70
2019-01-19T05:04:22.716Z,15.57
2019-01-19T05:06:53.758Z,20.00
2019-01-19T05:12:58.858Z,12.93
2019-01-19T05:15:29.801Z,14.23
2019-01-19T05:18:01.060Z,14.37
2019-01-19T05:20:31.992Z,14.47
2019-01-19T05:23:03.054Z,16.63
2019-01-19T05:25:33.937Z,16.47
2019-01-19T05:28:05.021Z,16.53
2019-01-19T05:30:36.019Z,16.73
2019-01-19T05:33:06.932Z,11.33
2019-01-19T05:35:37.894Z,12.97
2019-01-19T05:38:08.873Z,15.47
2019-01-19T05:40:59.002Z,15.57
2019-01-19T05:43:30.004Z,16.87
2019-01-19T05:46:00.947Z,13.80
2019-01-19T05:48:31.949Z,16.73
2019-01-19T05:51:02.949Z,16.57
2019-01-19T05:53:53.154Z,13.60
2019-01-19T05:56:43.299Z,16.50
2019-01-19T05:59:33.431Z,14.97
2019-01-19T06:02:04.457Z,12.97
2019-01-19T06:04:54.775Z,13.57
2019-01-19T06:07:26.021Z,16.17
2019-01-19T06:09:57.092Z,15.47
2019-01-19T06:12:47.499Z,14.43
2019-01-19T06:15:37.454Z,16.73
2019-01-19T06:24:54.179Z,15.90
2019-01-19T06:27:44.484Z,14.10
2019-01-19T06:30:55.308Z,14.47
2019-01-19T06:33:26.311Z,15.10
2019-01-19T06:35:57.256Z,13.90
2019-01-19T06:39:06.350Z,13.33
2019-01-19T06:41:37.413Z,15.37
2019-01-19T06:44:27.606Z,15.23
2019-01-19T06:46:58.602Z,16.77
2019-01-19T06:49:48.935Z,15.20
2019-01-19T06:52:19.945Z,16.37
2019-01-19T06:55:30.700Z,13.80
2019-01-19T06:58:20.979Z,13.70
2019-01-19T07:01:11.090Z,14.33
2019-01-19T07:04:01.399Z,11.63
2019-01-19T07:07:10.698Z,13.73
2019-01-19T07:10:01.259Z,11.00
2019-01-19T07:13:11.725Z,11.83
2019-01-19T07:16:01.849Z,13.50
2019-01-19T07:22:25.883Z,14.13
2019-01-19T07:25:15.911Z,15.80
2019-01-19T07:27:46.862Z,16.87
2019-01-19T07:30:57.764Z,17.80
2019-01-19T07:33:48.058Z,13.87
2019-01-19T07:36:38.283Z,14.07
2019-01-19T07:39:47.576Z,17.93
2019-01-19T07:42:18.816Z,16.47
2019-01-19T07:44:49.825Z,17.57
2019-01-19T07:50:56.418Z,19.90
2019-01-19T07:56:36.495Z,20.17
2019-01-19T07:59:26.603Z,20.53
2019-01-19T08:02:16.995Z,21.40
2019-01-19T08:05:07.220Z,20.97
2019-01-19T08:07:38.136Z,20.60
2019-01-19T08:10:28.217Z,17.07
2019-01-19T08:13:18.390Z,17.90
2019-01-19T08:15:49.365Z,18.83
2019-01-19T08:18:20.337Z,23.87
2019-01-19T08:20:51.300Z,21.37
2019-01-19T08:23:22.275Z,20.33
2019-01-19T08:26:12.508Z,20.30
2019-01-19T08:28:43.494Z,16.73
2019-01-19T08:31:14.565Z,19.47
2019-01-19T08:34:33.881Z,14.60
2019-01-19T08:37:44.702Z,13.87
2019-01-19T08:40:56.270Z,15.43
2019-01-19T08:44:25.694Z,14.57
2019-01-19T08:46:56.624Z,15.80
2019-01-19T08:49:27.490Z,12.87
2019-01-19T08:55:48.826Z,14.40
2019-01-19T09:01:29.031Z,14.10
2019-01-19T09:04:19.249Z,13.67
2019-01-19T09:10:44.925Z,9.83
2019-01-19T09:13:35.180Z,8.27
2019-01-19T09:16:45.972Z,7.20
2019-01-19T09:25:32.809Z,6.27
2019-01-19T09:28:03.717Z,6.23
2019-01-19T09:30:34.796Z,6.10
2019-01-19T09:33:25.007Z,7.37
2019-01-19T09:39:10.488Z,6.47
2019-01-19T09:42:00.806Z,6.00
2019-01-19T09:44:44.236Z,8.20
2019-01-19T09:47:15.132Z,4.70
2019-01-19T09:50:45.075Z,3.83
2019-01-19T09:53:35.196Z,5.00
2019-01-19T09:56:06.242Z,9.67
2019-01-19T09:58:56.482Z,5.40
2019-01-19T10:01:27.339Z,3.73
2019-01-19T10:04:17.527Z,4.10
2019-01-19T10:07:07.650Z,3.30
2019-01-19T10:09:38.613Z,4.87
2019-01-19T10:18:33.450Z,4.47
2019-01-19T10:27:37.442Z,4.00
2019-01-19T10:30:45.676Z,6.67
2019-01-19T10:33:36.065Z,10.93
2019-01-19T10:39:16.139Z,4.50
2019-01-19T10:42:06.333Z,3.50
2019-01-19T10:44:56.371Z,6.90
2019-01-19T10:50:57.007Z,5.53
2019-01-19T10:53:47.248Z,4.33
2019-01-19T10:56:58.080Z,5.83
2019-01-19T10:59:48.169Z,4.63
2019-01-19T11:02:58.991Z,8.53
2019-01-19T11:06:08.253Z,5.63
2019-01-19T11:08:39.325Z,3.57
2019-01-19T11:11:29.387Z,5.00
2019-01-19T11:14:19.597Z,3.87
2019-01-19T11:17:09.821Z,6.90
2019-01-19T11:20:00.040Z,4.90
2019-01-19T11:22:50.258Z,6.00
2019-01-19T11:25:21.383Z,5.77
2019-01-19T11:28:11.536Z,7.90
2019-01-19T11:31:01.809Z,5.27
2019-01-19T11:33:32.705Z,6.47
2019-01-19T11:36:03.846Z,8.33
2019-01-19T11:38:34.878Z,8.30
2019-01-19T11:41:05.887Z,8.23
2019-01-19T11:43:36.901Z,8.17
2019-01-19T11:46:07.905Z,9.30
2019-01-19T11:51:47.844Z,6.27
2019-01-19T11:54:19.023Z,5.80
2019-01-19T11:57:09.187Z,5.43
2019-01-19T12:03:34.300Z,8.73
2019-01-19T12:06:05.362Z,7.53
2019-01-19T12:11:47.207Z,4.83
2019-01-19T12:14:37.731Z,4.97
2019-01-19T12:17:27.867Z,5.00
2019-01-19T12:19:58.840Z,6.13
2019-01-19T12:22:29.918Z,6.30
2019-01-19T12:25:40.801Z,5.97
2019-01-19T12:28:11.843Z,5.87
2019-01-19T12:31:02.079Z,6.50
2019-01-19T12:33:52.220Z,7.73
2019-01-19T12:36:23.262Z,6.17
2019-01-19T12:38:56.664Z,4.47
2019-01-19T12:41:27.715Z,4.53
2019-01-19T12:43:58.615Z,3.50
2019-01-19T12:46:29.556Z,5.07
2019-01-19T12:49:00.494Z,4.00
2019-01-19T12:51:31.500Z,3.27
2019-01-19T12:54:02.439Z,3.07
2019-01-19T12:56:33.543Z,2.93
2019-01-19T12:59:04.595Z,3.23
2019-01-19T13:01:35.819Z,4.27
2019-01-19T13:04:07.004Z,2.37
2019-01-19T13:07:17.854Z,12.17
2019-01-19T13:10:07.923Z,2.20
2019-01-19T13:12:58.157Z,6.00
2019-01-19T13:16:09.092Z,3.00
2019-01-19T13:19:19.888Z,2.23
2019-01-19T13:22:48.578Z,3.23
2019-01-19T13:25:59.387Z,2.73
2019-01-19T13:29:08.957Z,2.93
2019-01-19T13:32:18.576Z,2.07
2019-01-19T13:35:28.151Z,2.43
2019-01-19T13:38:42.049Z,2.27
2019-01-19T13:42:29.697Z,3.00
2019-01-19T13:45:39.249Z,4.60
2019-01-19T13:48:50.090Z,3.07
2019-01-19T13:52:21.008Z,3.13
2019-01-19T13:55:54.019Z,2.73
2019-01-19T13:59:22.573Z,2.03
2019-01-19T14:02:32.112Z,3.17
2019-01-19T14:05:41.598Z,3.70
2019-01-19T14:08:51.113Z,4.83
2019-01-19T14:12:00.653Z,3.83
2019-01-19T14:15:11.599Z,2.83
2019-01-19T14:18:22.497Z,3.13
2019-01-19T14:21:33.295Z,3.87
2019-01-19T14:24:42.850Z,2.97
2019-01-19T14:27:52.280Z,2.50
2019-01-19T14:31:03.450Z,2.57
2019-01-19T14:34:14.300Z,2.43
2019-01-19T14:37:25.108Z,4.30
2019-01-19T14:40:42.418Z,5.03
2019-01-19T14:43:52.105Z,3.60
2019-01-19T14:47:22.032Z,5.03
2019-01-19T14:50:32.033Z,3.47
2019-01-19T14:53:41.657Z,16.87
2019-01-19T14:56:51.210Z,3.63
2019-01-19T15:00:00.690Z,3.47
2019-01-19T15:03:11.570Z,11.53
2019-01-19T15:06:21.029Z,6.50
2019-01-19T15:09:30.523Z,4.77
2019-01-19T15:13:00.449Z,4.50
2019-01-19T15:16:11.250Z,3.23
2019-01-19T15:19:22.078Z,5.30
2019-01-19T15:22:31.935Z,3.53
2019-01-19T15:25:42.768Z,3.40
2019-01-19T15:28:52.225Z,4.20
2019-01-19T15:35:58.017Z,5.07
2019-01-19T15:39:11.030Z,3.40
2019-01-19T15:42:58.401Z,4.43
2019-01-19T15:46:09.254Z,4.13
2019-01-19T15:49:18.821Z,5.80
2019-01-19T15:52:28.306Z,9.97
2019-01-19T15:58:54.697Z,13.80
2019-01-19T16:02:05.551Z,11.37
2019-01-19T16:05:34.112Z,11.90
2019-01-19T16:08:44.965Z,9.70
2019-01-19T16:11:54.421Z,8.27
2019-01-19T16:15:03.902Z,5.20
2019-01-19T16:18:14.694Z,4.37
2019-01-19T16:21:24.361Z,4.27
2019-01-19T16:24:35.179Z,5.60
2019-01-19T16:27:45.972Z,6.70
2019-01-19T16:30:56.860Z,6.20
2019-01-19T16:34:07.693Z,6.70
2019-01-19T16:37:17.194Z,9.53
2019-01-19T16:40:26.739Z,13.47
2019-01-19T16:43:37.576Z,16.40
2019-01-19T16:56:48.700Z,8.50
2019-01-19T16:59:59.613Z,9.90
2019-01-19T17:03:11.817Z,12.93
2019-01-19T17:06:59.794Z,9.27
2019-01-19T17:10:09.326Z,11.37
2019-01-19T17:13:20.270Z,13.93
2019-01-19T17:16:29.745Z,10.97
2019-01-19T17:19:39.234Z,11.70
2019-01-19T17:22:48.740Z,11.53
2019-01-19T17:26:17.344Z,16.83
2019-01-19T17:29:28.198Z,20.43
2019-01-19T17:32:39.045Z,18.43
2019-01-19T17:35:48.556Z,13.70
2019-01-19T17:38:59.377Z,15.30
2019-01-19T17:42:08.905Z,14.90
2019-01-19T17:45:18.458Z,18.63
2019-01-19T17:48:27.979Z,18.60
2019-01-19T17:51:38.874Z,17.67
2019-01-19T17:54:48.416Z,15.23
2019-01-19T17:57:58.053Z,9.83
2019-01-19T18:01:07.775Z,11.50
2019-01-19T18:04:18.656Z,11.60
2019-01-19T18:07:28.170Z,11.43
2019-01-19T18:10:39.063Z,9.03
2019-01-19T18:13:49.895Z,9.17
2019-01-19T18:16:59.373Z,8.83
2019-01-19T18:20:08.892Z,9.40
2019-01-19T18:23:18.371Z,10.93
2019-01-19T18:26:27.885Z,10.30
2019-01-19T18:29:37.407Z,13.13
2019-01-19T18:32:48.293Z,15.07
2019-01-19T18:35:59.155Z,14.07
2019-01-19T18:39:10.071Z,12.60
2019-01-19T18:42:19.526Z,13.33
2019-01-19T18:45:29.033Z,12.20
2019-01-19T18:48:39.847Z,11.90
2019-01-19T18:51:50.681Z,11.73
2019-01-19T18:55:01.623Z,10.13
2019-01-19T18:58:11.232Z,10.50
2019-01-19T19:01:23.003Z,10.80
2019-01-19T19:04:33.830Z,9.57
2019-01-19T19:07:44.811Z,11.77
2019-01-19T19:10:54.450Z,8.63
2019-01-19T19:14:03.981Z,11.03
2019-01-19T19:17:14.821Z,11.27
2019-01-19T19:20:43.401Z,11.40
2019-01-19T19:23:54.369Z,13.23
2019-01-19T19:27:03.860Z,10.67
2019-01-19T19:30:13.362Z,12.20
2019-01-19T19:33:24.385Z,10.53
2019-01-19T19:36:35.688Z,13.07
2019-01-19T19:40:25.175Z,11.37
2019-01-19T19:43:36.039Z,13.87
2019-01-19T19:46:46.893Z,13.40
2019-01-19T19:49:56.914Z,11.87
2019-01-19T19:52:47.373Z,15.77
2019-01-19T20:02:06.759Z,12.67
2019-01-19T20:04:57.018Z,11.90
2019-01-19T20:21:23.245Z,10.33
2019-01-19T20:24:13.960Z,13.30
2019-01-19T20:26:45.089Z,14.63
2019-01-19T20:29:16.177Z,11.23
2019-01-19T20:34:56.454Z,13.53
2019-01-19T20:37:47.369Z,11.60
2019-01-19T20:40:37.544Z,13.80
2019-01-19T20:46:44.295Z,13.17
2019-01-19T20:49:55.659Z,10.63
2019-01-19T20:52:46.161Z,12.93
2019-01-19T20:59:31.313Z,11.53
2019-01-19T21:02:22.086Z,13.00
2019-01-19T21:08:23.189Z,13.67
2019-01-19T21:11:13.589Z,13.67
2019-01-19T21:14:23.542Z,15.77
2019-01-19T21:17:55.868Z,14.47
2019-01-19T21:21:04.665Z,11.40
2019-01-19T21:23:55.184Z,12.80
2019-01-19T21:26:26.258Z,14.87
2019-01-19T21:29:16.478Z,15.33
2019-01-19T21:32:06.532Z,14.40
2019-01-19T21:34:56.755Z,13.23
2019-01-19T21:37:47.169Z,13.53
2019-01-19T21:40:39.201Z,12.77
2019-01-19T21:47:23.684Z,13.20
2019-01-19T21:50:13.893Z,12.30
2019-01-19T21:52:44.857Z,13.07
2019-01-19T21:55:35.120Z,10.87
2019-01-19T21:58:25.160Z,10.87
2019-01-19T22:00:56.322Z,13.63
2019-01-19T22:03:46.375Z,12.33
2019-01-19T22:06:17.425Z,12.97
2019-01-19T22:08:48.305Z,13.70
2019-01-19T22:11:58.213Z,15.30
2019-01-19T22:14:48.408Z,22.37
2019-01-19T22:20:55.139Z,14.43
2019-01-19T22:23:45.315Z,24.23
2019-01-19T22:29:52.242Z,14.47
2019-01-19T22:32:42.749Z,11.60
2019-01-19T22:35:53.583Z,14.37
2019-01-19T22:38:43.772Z,29.23
2019-01-19T22:41:14.658Z,20.93
2019-01-19T22:44:44.556Z,19.63
2019-01-19T22:47:15.516Z,15.83
2019-01-19T22:50:05.560Z,16.50
2019-01-19T22:56:06.570Z,16.30
2019-01-19T22:58:56.761Z,14.07
2019-01-19T23:02:07.597Z,12.97
2019-01-19T23:04:57.699Z,14.67
2019-01-19T23:07:28.616Z,16.37
2019-01-19T23:09:59.516Z,17.53
2019-01-19T23:12:30.523Z,15.63
2019-01-19T23:17:42.073Z,12.33
2019-01-19T23:24:07.497Z,14.33
2019-01-19T23:30:08.461Z,15.40
2019-01-19T23:32:39.340Z,12.23
2019-01-19T23:35:29.583Z,14.53
2019-01-19T23:38:19.852Z,16.47
2019-01-19T23:41:10.038Z,12.53
2019-01-19T23:43:40.976Z,12.53
2019-01-19T23:46:12.118Z,13.17
2019-01-19T23:48:42.969Z,14.07
2019-01-19T23:51:53.665Z,16.20
2019-01-19T23:54:24.689Z,13.80
2019-01-19T23:56:55.628Z,14.73
2019-01-19T23:59:45.982Z,16.73
